Time;durP1;ratioP1;P1;durP2;ratioP2;P2;SDS_P1;SDS_P2;PMS_P1;PMS_P2;Temp;Humidity;BMP_temperature;BMP_pressure;BME280_temperature;BME280_humidity;BME280_pressure;Samples;Min_cycle;Max_cycle;Signal;HPM_P1;HPM_P2
2023/01/25 00:02:08;;;;;;;17.67;15.80;;;;;;;2.11;100.00;102036.44;5018721;28;20269;-74
2023/01/25 00:04:33;;;;;;;18.50;15.93;;;;;;;2.11;100.00;102041.53;5024833;28;20280;-74
2023/01/25 00:06:58;;;;;;;18.33;16.40;;;;;;;2.09;100.00;102032.06;5019407;28;20210;-74
2023/01/25 00:09:24;;;;;;;18.77;16.80;;;;;;;2.09;100.00;102026.94;5018358;28;20194;-74
2023/01/25 00:11:52;;;;;;;18.70;16.20;;;;;;;2.05;100.00;102028.44;5018743;28;20206;-75
2023/01/25 00:14:17;;;;;;;19.67;17.20;;;;;;;2.06;100.00;102029.31;5018842;28;20226;-74
2023/01/25 00:16:43;;;;;;;19.20;16.67;;;;;;;2.05;100.00;102025.00;5026069;28;20316;-73
2023/01/25 00:19:09;;;;;;;19.67;17.03;;;;;;;2.05;100.00;102020.75;5019563;28;20239;-73
2023/01/25 00:21:35;;;;;;;19.10;16.83;;;;;;;2.03;100.00;102021.50;5016291;28;20265;-75
2023/01/25 00:24:02;;;;;;;19.53;17.50;;;;;;;2.01;100.00;102023.97;5021155;28;20195;-74
2023/01/25 00:26:32;;;;;;;20.33;17.73;;;;;;;2.02;100.00;102022.28;5010113;28;20213;-74
2023/01/25 00:28:58;;;;;;;19.80;17.70;;;;;;;2.02;100.00;102010.41;5018394;28;20198;-74
2023/01/25 00:31:32;;;;;;;18.77;16.80;;;;;;;1.98;100.00;102011.03;5025931;28;20593;-73
2023/01/25 00:34:23;;;;;;;20.77;17.27;;;;;;;1.98;100.00;102011.91;5011923;28;20200;-74
2023/01/25 00:37:12;;;;;;;20.77;18.07;;;;;;;2.01;100.00;102017.97;5013416;28;20207;-75
2023/01/25 00:39:38;;;;;;;20.00;16.93;;;;;;;1.97;100.00;102011.81;5026815;28;20214;-73
2023/01/25 00:42:03;;;;;;;20.40;18.20;;;;;;;1.99;100.00;102010.25;5022493;28;20219;-74
2023/01/25 00:44:29;;;;;;;19.03;16.90;;;;;;;1.98;100.00;102006.78;5026351;28;20191;-74
2023/01/25 00:46:54;;;;;;;19.70;16.97;;;;;;;2.00;100.00;102003.44;5025540;28;20249;-73
2023/01/25 00:49:21;;;;;;;20.13;18.07;;;;;;;1.97;100.00;101993.94;5026454;28;20183;-75
2023/01/25 00:51:47;;;;;;;20.20;17.97;;;;;;;1.96;100.00;101994.75;5025374;28;20208;-75
2023/01/25 00:54:12;;;;;;;20.30;18.10;;;;;;;1.95;100.00;101983.66;5030144;28;20206;-74
2023/01/25 00:56:37;;;;;;;19.33;17.03;;;;;;;1.96;100.00;101990.53;5037817;28;20183;-74
2023/01/25 00:59:02;;;;;;;19.47;16.90;;;;;;;1.92;100.00;101980.06;5024434;28;20231;-73
2023/01/25 01:01:28;;;;;;;19.63;17.57;;;;;;;1.93;100.00;101987.81;5017363;28;20207;-74
2023/01/25 01:03:53;;;;;;;20.77;18.03;;;;;;;1.93;100.00;101987.81;5017621;28;20758;-76
2023/01/25 01:06:18;;;;;;;17.83;15.93;;;;;;;1.91;100.00;101983.41;5023558;28;20203;-75
2023/01/25 01:08:44;;;;;;;21.07;17.87;;;;;;;1.92;100.00;101972.38;5026634;28;20191;-74
2023/01/25 01:11:11;;;;;;;21.17;18.93;;;;;;;1.93;100.00;101972.50;5020245;28;20199;-75
2023/01/25 01:13:37;;;;;;;20.83;18.37;;;;;;;1.93;100.00;101967.38;5021266;28;20201;-76
2023/01/25 01:16:07;;;;;;;21.13;18.77;;;;;;;1.92;100.00;101963.06;5025802;28;20583;-73
2023/01/25 01:18:43;;;;;;;20.37;18.20;;;;;;;1.93;100.00;101963.94;5031976;28;20215;-74
2023/01/25 01:21:09;;;;;;;21.80;19.07;;;;;;;1.96;100.00;101969.22;5015165;28;20196;-74
2023/01/25 01:23:35;;;;;;;22.20;18.67;;;;;;;1.96;100.00;101971.78;5029993;28;20282;-75
2023/01/25 01:26:06;;;;;;;21.67;19.30;;;;;;;1.90;100.00;101967.22;5016204;28;20266;-74
2023/01/25 01:28:33;;;;;;;21.30;18.33;;;;;;;1.91;100.00;101966.41;5039530;28;20187;-77
2023/01/25 01:31:17;;;;;;;21.53;18.50;;;;;;;1.90;100.00;101977.44;5040538;28;20211;-76
2023/01/25 01:33:43;;;;;;;23.03;19.17;;;;;;;1.90;100.00;101977.44;5023031;28;20295;-73
2023/01/25 01:36:08;;;;;;;20.70;18.20;;;;;;;1.91;100.00;101989.41;5012998;28;20912;-74
2023/01/25 01:38:34;;;;;;;23.73;19.77;;;;;;;1.91;100.00;101988.50;5021956;28;20222;-73
2023/01/25 01:40:59;;;;;;;21.83;19.53;;;;;;;1.91;100.00;101993.59;5024447;28;20671;-75
2023/01/25 01:43:25;;;;;;;22.00;19.03;;;;;;;1.91;100.00;101985.94;5020554;28;20194;-75
2023/01/25 01:45:54;;;;;;;21.53;19.23;;;;;;;1.91;100.00;101975.75;5022636;28;20199;-76
2023/01/25 01:48:43;;;;;;;23.93;19.73;;;;;;;1.91;100.00;101974.09;5028713;28;20211;-74
2023/01/25 01:51:19;;;;;;;24.10;19.03;;;;;;;1.91;100.00;101970.63;5019060;28;20772;-75
2023/01/25 01:53:49;;;;;;;22.77;20.03;;;;;;;1.93;100.00;101969.03;5024732;28;20709;-75
2023/01/25 01:56:21;;;;;;;24.47;20.03;;;;;;;1.94;100.00;101968.25;5020196;28;20195;-76
2023/01/25 01:58:50;;;;;;;22.37;19.10;;;;;;;1.95;100.00;101976.00;5015503;28;20207;-75
2023/01/25 02:01:16;;;;;;;23.50;20.80;;;;;;;1.92;100.00;101973.28;5019549;28;20208;-75
2023/01/25 02:03:42;;;;;;;22.70;20.33;;;;;;;1.92;100.00;101972.38;5026198;28;20585;-76
2023/01/25 02:06:23;;;;;;;22.87;19.10;;;;;;;1.91;100.00;101962.97;5022804;28;20245;-75
2023/01/25 02:08:48;;;;;;;22.20;19.80;;;;;;;1.91;100.00;101961.31;5034922;28;20261;-76
2023/01/25 02:11:14;;;;;;;23.40;19.83;;;;;;;1.91;100.00;101968.06;5017167;28;21026;-74
2023/01/25 02:13:40;;;;;;;23.73;18.47;;;;;;;1.89;100.00;101967.16;5020470;28;20729;-75
2023/01/25 02:16:12;;;;;;;22.80;20.33;;;;;;;1.91;100.00;101968.06;5021782;28;20189;-75
2023/01/25 02:18:38;;;;;;;22.10;19.40;;;;;;;1.94;100.00;101969.16;5019141;28;20207;-73
2023/01/25 02:21:03;;;;;;;24.87;20.43;;;;;;;1.91;100.00;101962.97;5023830;28;20208;-76
2023/01/25 02:23:37;;;;;;;22.83;20.20;;;;;;;1.92;100.00;101969.84;5023519;28;20273;-75
2023/01/25 02:26:04;;;;;;;21.97;19.53;;;;;;;1.92;100.00;101968.19;5019775;28;20199;-74
2023/01/25 02:28:51;;;;;;;22.93;20.20;;;;;;;1.94;100.00;101966.59;5033904;28;20188;-75
2023/01/25 02:31:17;;;;;;;23.57;20.87;;;;;;;1.91;100.00;101961.31;5025420;28;20219;-74
2023/01/25 02:33:42;;;;;;;23.70;21.03;;;;;;;1.92;100.00;101967.28;5021398;28;20902;-74
2023/01/25 02:36:07;;;;;;;23.70;19.97;;;;;;;1.93;100.00;101957.19;5019102;28;20656;-75
2023/01/25 02:38:36;;;;;;;23.40;20.90;;;;;;;1.91;100.00;101951.09;5029513;28;20251;-74
2023/01/25 02:41:07;;;;;;;23.27;20.73;;;;;;;1.93;100.00;101946.06;5027726;28;20188;-76
2023/01/25 02:43:33;;;;;;;22.30;19.87;;;;;;;1.93;100.00;101948.63;5024955;28;20226;-75
2023/01/25 02:46:13;;;;;;;22.53;19.97;;;;;;;1.96;100.00;101949.69;5025628;28;20776;-75
2023/01/25 02:48:38;;;;;;;23.80;20.13;;;;;;;1.92;100.00;101937.53;5033001;28;20175;-75
2023/01/25 02:51:06;;;;;;;23.23;20.07;;;;;;;1.93;100.00;101939.28;5028565;28;20191;-75
2023/01/25 02:53:32;;;;;;;24.27;20.93;;;;;;;1.91;100.00;101938.34;5031254;28;20269;-75
2023/01/25 02:55:57;;;;;;;22.53;20.17;;;;;;;1.91;100.00;101932.34;5018189;28;20298;-74
2023/01/25 02:58:22;;;;;;;24.00;21.03;;;;;;;1.92;100.00;101936.66;5020830;28;20211;-74
2023/01/25 03:00:47;;;;;;;22.77;20.37;;;;;;;1.91;100.00;101938.34;5013191;28;20186;-75
2023/01/25 03:03:13;;;;;;;24.23;20.90;;;;;;;1.94;100.00;101935.94;5018632;28;20204;-75
2023/01/25 03:05:38;;;;;;;25.53;20.80;;;;;;;1.95;100.00;101935.16;5022316;28;20184;-75
2023/01/25 03:08:03;;;;;;;23.57;21.07;;;;;;;1.95;100.00;101927.50;5019102;28;20182;-75
2023/01/25 03:10:29;;;;;;;24.60;20.43;;;;;;;1.93;100.00;101933.28;5011351;28;20192;-75
2023/01/25 03:12:54;;;;;;;22.40;19.83;;;;;;;1.92;100.00;101927.31;5013393;28;20208;-74
2023/01/25 03:15:19;;;;;;;23.57;21.00;;;;;;;1.92;100.00;101927.31;5020470;28;20188;-74
2023/01/25 03:17:45;;;;;;;26.27;20.43;;;;;;;1.95;100.00;101937.72;5023023;28;20567;-74
2023/01/25 03:20:10;;;;;;;23.40;20.47;;;;;;;1.93;100.00;101930.75;5027577;28;20216;-75
2023/01/25 03:22:36;;;;;;;26.10;21.40;;;;;;;1.93;100.00;101923.09;5017730;28;20207;-74
2023/01/25 03:25:01;;;;;;;24.97;20.57;;;;;;;1.90;100.00;101922.91;5021327;28;20833;-75
2023/01/25 03:27:28;;;;;;;22.83;20.37;;;;;;;1.89;100.00;101914.38;5014904;28;20607;-74
2023/01/25 03:29:54;;;;;;;23.87;21.20;;;;;;;1.88;100.00;101919.44;5011582;28;20237;-75
2023/01/25 03:32:19;;;;;;;24.17;21.37;;;;;;;1.87;100.00;101920.22;5023575;28;20212;-75
2023/01/25 03:34:44;;;;;;;24.67;21.20;;;;;;;1.87;100.00;101915.13;5023591;28;20774;-75
2023/01/25 03:37:10;;;;;;;25.10;21.23;;;;;;;1.88;100.00;101912.63;5038218;28;20221;-76
2023/01/25 03:39:35;;;;;;;25.37;20.70;;;;;;;1.89;100.00;101921.19;5049734;28;20214;-74
2023/01/25 03:42:00;;;;;;;23.90;21.30;;;;;;;1.87;100.00;101923.63;5034783;28;20215;-76
2023/01/25 03:44:26;;;;;;;27.13;22.13;;;;;;;1.85;100.00;101915.00;5019534;28;20188;-75
2023/01/25 03:46:51;;;;;;;26.23;21.80;;;;;;;1.87;100.00;101917.66;5015357;28;20183;-74
2023/01/25 03:49:17;;;;;;;27.87;22.60;;;;;;;1.85;100.00;101919.25;5012489;28;20188;-75
2023/01/25 03:51:42;;;;;;;26.67;22.07;;;;;;;1.85;100.00;101914.16;5019129;28;20210;-75
2023/01/25 03:54:09;;;;;;;26.47;22.93;;;;;;;1.83;100.00;101919.16;5024169;28;20186;-76
2023/01/25 03:56:35;;;;;;;26.77;22.53;;;;;;;1.81;100.00;101913.13;5017990;28;20191;-75
2023/01/25 03:59:00;;;;;;;28.57;23.23;;;;;;;1.83;100.00;101916.59;5015168;28;20277;-76
2023/01/25 04:01:25;;;;;;;26.33;23.20;;;;;;;1.80;100.00;101911.38;5011544;28;20709;-74
2023/01/25 04:03:51;;;;;;;29.20;23.73;;;;;;;1.83;100.00;101903.84;5019024;28;20187;-76
2023/01/25 04:06:16;;;;;;;30.47;23.43;;;;;;;1.83;100.00;101921.72;5011978;28;20235;-75
2023/01/25 04:08:41;;;;;;;25.53;22.47;;;;;;;1.81;100.00;101903.78;5017388;28;20229;-75
2023/01/25 04:11:08;;;;;;;27.43;22.90;;;;;;;1.81;100.00;101913.97;5023609;28;20228;-74
2023/01/25 04:13:35;;;;;;;29.43;23.53;;;;;;;1.80;100.00;101919.88;5026994;28;20184;-74
2023/01/25 04:16:01;;;;;;;28.57;24.53;;;;;;;1.77;100.00;101912.06;5021458;28;20183;-75
2023/01/25 04:18:27;;;;;;;29.73;24.60;;;;;;;1.75;100.00;101906.00;5027625;28;20216;-74
2023/01/25 04:20:54;;;;;;;29.00;24.40;;;;;;;1.76;100.00;101914.53;5017408;28;20196;-74
2023/01/25 04:23:19;;;;;;;28.73;23.53;;;;;;;1.78;100.00;101911.25;5012693;28;20211;-74
2023/01/25 04:25:59;;;;;;;27.60;23.33;;;;;;;1.76;100.00;101905.19;5022753;28;20540;-77
2023/01/25 04:28:27;;;;;;;26.73;23.10;;;;;;;1.75;100.00;101898.34;5041355;28;20230;-76
2023/01/25 04:30:53;;;;;;;29.43;23.93;;;;;;;1.74;100.00;101899.13;5025107;28;20198;-75
2023/01/25 04:33:18;;;;;;;28.90;23.23;;;;;;;1.74;100.00;101900.81;5027422;28;20211;-74
2023/01/25 04:35:45;;;;;;;29.33;22.87;;;;;;;1.69;100.00;101908.22;5031481;28;20196;-74
2023/01/25 04:38:11;;;;;;;30.80;23.80;;;;;;;1.68;100.00;101898.81;5020837;28;20184;-74
2023/01/25 04:40:36;;;;;;;30.33;25.27;;;;;;;1.64;100.00;101899.44;5033292;28;20217;-74
2023/01/25 04:43:02;;;;;;;29.57;23.27;;;;;;;1.65;100.00;101891.00;5029892;28;20207;-75
2023/01/25 04:45:27;;;;;;;29.33;24.00;;;;;;;1.63;100.00;101892.56;5026063;28;20183;-74
2023/01/25 04:47:58;;;;;;;30.17;25.37;;;;;;;1.63;100.00;101888.38;5023516;28;20920;-74
2023/01/25 04:50:24;;;;;;;32.27;24.60;;;;;;;1.64;100.00;101884.13;5031445;28;20568;-73
2023/01/25 04:52:49;;;;;;;29.27;23.90;;;;;;;1.62;100.00;101886.59;5028522;28;20199;-73
2023/01/25 04:55:14;;;;;;;29.43;23.60;;;;;;;1.63;100.00;101895.13;5033640;28;20210;-74
2023/01/25 04:57:40;;;;;;;27.30;23.60;;;;;;;1.61;100.00;101896.72;5022468;28;20250;-75
2023/01/25 05:00:06;;;;;;;29.60;24.57;;;;;;;1.60;100.00;101884.75;5015493;28;20631;-74
2023/01/25 05:02:31;;;;;;;29.33;23.23;;;;;;;1.58;100.00;101878.72;5013503;28;20270;-75
2023/01/25 05:04:57;;;;;;;30.83;24.37;;;;;;;1.59;100.00;101885.56;5028033;28;20192;-74
2023/01/25 05:07:22;;;;;;;28.27;23.57;;;;;;;1.54;100.00;101875.09;5026295;28;20254;-74
2023/01/25 05:09:47;;;;;;;28.73;23.30;;;;;;;1.54;100.00;101881.88;5032492;28;20642;-75
2023/01/25 05:12:12;;;;;;;29.57;23.70;;;;;;;1.54;100.00;101876.78;5022516;28;20214;-74
2023/01/25 05:14:38;;;;;;;26.87;22.57;;;;;;;1.50;100.00;101883.41;5023950;28;20183;-75
2023/01/25 05:17:05;;;;;;;25.13;21.10;;;;;;;1.49;100.00;101884.19;5026071;28;20271;-74
2023/01/25 05:19:31;;;;;;;27.60;22.60;;;;;;;1.51;100.00;101887.72;5015165;28;20211;-74
2023/01/25 05:21:59;;;;;;;28.93;23.07;;;;;;;1.50;100.00;101885.97;5026029;28;20202;-74
2023/01/25 05:24:26;;;;;;;26.13;21.47;;;;;;;1.50;100.00;101889.38;5037307;28;20191;-76
2023/01/25 05:27:04;;;;;;;26.70;21.93;;;;;;;1.51;100.00;101890.28;5014397;28;20279;-75
2023/01/25 05:29:31;;;;;;;27.53;23.17;;;;;;;1.51;100.00;101885.16;5012796;28;20241;-75
2023/01/25 05:31:57;;;;;;;24.70;21.30;;;;;;;1.51;100.00;101878.38;5016076;28;20226;-77
2023/01/25 05:34:23;;;;;;;29.47;22.13;;;;;;;1.52;100.00;101886.88;5019321;28;20184;-74
2023/01/25 05:36:48;;;;;;;26.57;22.20;;;;;;;1.47;100.00;101879.00;5014349;28;20314;-73
2023/01/25 05:39:13;;;;;;;26.70;21.97;;;;;;;1.47;100.00;101884.09;5011564;28;20307;-74
2023/01/25 05:41:39;;;;;;;27.43;21.77;;;;;;;1.47;100.00;101890.88;5020821;28;20234;-74
2023/01/25 05:44:04;;;;;;;29.63;21.67;;;;;;;1.46;100.00;101877.25;5024232;28;21106;-73
2023/01/25 05:46:30;;;;;;;24.07;21.37;;;;;;;1.50;100.00;101880.84;5022513;28;20187;-73
2023/01/25 05:48:55;;;;;;;26.97;21.17;;;;;;;1.43;100.00;101878.75;5039278;28;20180;-73
2023/01/25 05:51:21;;;;;;;27.47;21.43;;;;;;;1.43;100.00;101883.84;5041566;28;20259;-73
2023/01/25 05:53:46;;;;;;;26.17;21.00;;;;;;;1.44;100.00;101889.03;5032692;28;20189;-74
2023/01/25 05:56:11;;;;;;;26.53;21.53;;;;;;;1.42;100.00;101890.66;5035584;28;20712;-74
2023/01/25 05:58:38;;;;;;;26.93;22.70;;;;;;;1.44;100.00;101890.72;5022396;28;20211;-74
2023/01/25 06:01:06;;;;;;;25.07;20.70;;;;;;;1.43;100.00;101881.31;5026219;28;20191;-74
2023/01/25 06:03:31;;;;;;;23.67;20.27;;;;;;;1.42;100.00;101890.66;5050983;28;20843;-74
2023/01/25 06:06:00;;;;;;;25.37;20.53;;;;;;;1.42;100.00;101892.31;5027958;28;20274;-74
2023/01/25 06:08:26;;;;;;;25.23;20.43;;;;;;;1.39;100.00;101885.38;5027466;28;20183;-74
2023/01/25 06:10:51;;;;;;;24.03;19.13;;;;;;;1.40;100.00;101879.47;5019459;28;20179;-74
2023/01/25 06:13:17;;;;;;;26.47;20.20;;;;;;;1.34;100.00;101887.69;5013152;28;20584;-74
2023/01/25 06:15:42;;;;;;;24.37;19.07;;;;;;;1.38;100.00;101875.97;5039505;28;20264;-74
2023/01/25 06:18:08;;;;;;;25.03;19.43;;;;;;;1.37;100.00;101879.31;5039186;28;20558;-75
2023/01/25 06:20:33;;;;;;;25.00;20.50;;;;;;;1.35;100.00;101874.13;5036825;28;20214;-73
2023/01/25 06:22:58;;;;;;;27.07;20.67;;;;;;;1.36;100.00;101860.56;5033756;28;20211;-74
2023/01/25 06:25:24;;;;;;;25.40;20.33;;;;;;;1.38;100.00;101865.75;5031526;28;20179;-74
2023/01/25 06:27:49;;;;;;;23.77;20.40;;;;;;;1.41;100.00;101855.72;5030326;28;20625;-74
2023/01/25 06:30:15;;;;;;;26.93;20.17;;;;;;;1.39;100.00;101846.22;5027668;28;20301;-74
2023/01/25 06:32:40;;;;;;;25.80;20.20;;;;;;;1.36;100.00;101847.78;5019424;28;20214;-74
2023/01/25 06:35:06;;;;;;;26.73;20.23;;;;;;;1.35;100.00;101851.19;5032267;28;20196;-73
2023/01/25 06:37:31;;;;;;;24.40;20.17;;;;;;;1.34;100.00;101851.06;5019898;28;20188;-74
2023/01/25 06:39:56;;;;;;;25.27;20.50;;;;;;;1.33;100.00;101849.31;5024929;28;20211;-75
2023/01/25 06:42:25;;;;;;;26.90;21.77;;;;;;;1.34;100.00;101843.41;5025304;28;20211;-74
2023/01/25 06:44:50;;;;;;;24.27;20.30;;;;;;;1.32;100.00;101839.91;5017306;28;20187;-74
2023/01/25 06:47:15;;;;;;;28.27;21.37;;;;;;;1.31;100.00;101835.59;5044883;28;20223;-73
2023/01/25 06:49:41;;;;;;;25.67;21.27;;;;;;;1.32;100.00;101839.91;5026283;28;20592;-75
2023/01/25 06:52:06;;;;;;;26.23;20.90;;;;;;;1.31;100.00;101840.69;5030190;28;20202;-73
2023/01/25 06:54:32;;;;;;;25.60;20.80;;;;;;;1.31;100.00;101833.94;5037301;28;20549;-73
2023/01/25 06:56:57;;;;;;;25.23;20.20;;;;;;;1.29;100.00;101832.06;5026905;28;20210;-73
2023/01/25 06:59:23;;;;;;;28.23;21.50;;;;;;;1.32;100.00;101834.81;5034696;28;22026;-75
2023/01/25 07:01:48;;;;;;;26.27;20.53;;;;;;;1.35;100.00;101842.63;5027375;28;20583;-73
2023/01/25 07:04:14;;;;;;;23.47;20.63;;;;;;;1.33;100.00;101845.09;5012269;28;20188;-73
2023/01/25 07:06:39;;;;;;;25.17;20.87;;;;;;;1.33;100.00;101845.09;5014044;28;20187;-74
2023/01/25 07:09:11;;;;;;;26.20;21.30;;;;;;;1.31;100.00;101836.50;5024498;28;20183;-74
2023/01/25 07:11:37;;;;;;;31.60;24.23;;;;;;;1.30;100.00;101844.03;5035571;28;20250;-74
2023/01/25 07:14:03;;;;;;;28.03;20.60;;;;;;;1.29;100.00;101843.19;5036045;28;20265;-73
2023/01/25 07:16:35;;;;;;;26.17;20.83;;;;;;;1.28;100.00;101838.88;5036982;28;20186;-74
2023/01/25 07:19:00;;;;;;;26.67;21.43;;;;;;;1.29;100.00;101843.19;5019837;28;20207;-73
2023/01/25 07:21:26;;;;;;;26.60;22.00;;;;;;;1.29;100.00;101837.19;5029022;28;20203;-75
2023/01/25 07:23:51;;;;;;;26.50;20.90;;;;;;;1.29;100.00;101835.53;5029947;28;20215;-74
2023/01/25 07:26:23;;;;;;;25.97;21.37;;;;;;;1.29;100.00;101842.28;5026084;28;20585;-73
2023/01/25 07:28:49;;;;;;;25.93;20.73;;;;;;;1.25;100.00;101835.28;5024735;28;20218;-72
2023/01/25 07:31:16;;;;;;;25.90;20.33;;;;;;;1.24;100.00;101847.13;5024523;28;20218;-73
2023/01/25 07:33:42;;;;;;;26.10;21.03;;;;;;;1.24;100.00;101843.72;5022652;28;20182;-73
2023/01/25 07:36:09;;;;;;;27.73;21.30;;;;;;;1.26;100.00;101837.91;5027164;28;20179;-73
2023/01/25 07:38:35;;;;;;;28.60;21.10;;;;;;;1.27;100.00;101847.31;5025156;28;20302;-74
2023/01/25 07:41:01;;;;;;;25.33;19.77;;;;;;;1.27;100.00;101838.78;5033983;28;20218;-74
2023/01/25 07:43:27;;;;;;;25.67;19.77;;;;;;;1.29;100.00;101842.28;5025282;28;20192;-75
2023/01/25 07:45:58;;;;;;;22.97;18.70;;;;;;;1.26;100.00;101845.56;5014674;28;20651;-74
2023/01/25 07:48:24;;;;;;;22.80;19.23;;;;;;;1.25;100.00;101869.31;5025264;28;20217;-73
2023/01/25 07:51:10;;;;;;;24.97;19.57;;;;;;;1.27;100.00;101844.75;5041993;28;20194;-74
2023/01/25 07:53:34;;;;;;;25.03;18.83;;;;;;;1.26;100.00;101839.59;5012736;28;20200;-73
2023/01/25 07:55:59;;;;;;;23.63;18.87;;;;;;;1.25;100.00;101840.38;5036856;28;20299;-74
2023/01/25 07:58:25;;;;;;;25.73;20.20;;;;;;;1.26;100.00;101839.59;5050006;28;20212;-73
2023/01/25 08:00:50;;;;;;;26.37;19.57;;;;;;;1.24;100.00;101842.03;5044151;28;20676;-74
2023/01/25 08:03:15;;;;;;;28.00;20.83;;;;;;;1.24;100.00;101843.72;5044811;28;20206;-73
2023/01/25 08:05:44;;;;;;;22.77;19.30;;;;;;;1.23;100.00;101844.53;5019829;28;20747;-75
2023/01/25 08:08:09;;;;;;;23.30;19.83;;;;;;;1.20;100.00;101838.44;5036061;28;20212;-74
2023/01/25 08:10:34;;;;;;;28.50;20.13;;;;;;;1.23;100.00;101839.41;5033043;28;20250;-73
2023/01/25 08:13:00;;;;;;;24.00;19.20;;;;;;;1.25;100.00;101845.47;5038544;28;20944;-73
2023/01/25 08:15:25;;;;;;;22.23;19.70;;;;;;;1.23;100.00;101840.28;5043272;28;20195;-74
2023/01/25 08:17:50;;;;;;;28.80;23.10;;;;;;;1.26;100.00;101847.25;5038498;28;20183;-74
2023/01/25 08:20:16;;;;;;;24.17;19.87;;;;;;;1.25;100.00;101851.44;5028779;28;20215;-74
2023/01/25 08:22:41;;;;;;;22.87;19.30;;;;;;;1.27;100.00;101857.50;5029826;28;20253;-74
2023/01/25 08:25:07;;;;;;;23.27;19.00;;;;;;;1.27;100.00;101842.22;5030073;28;20674;-73
2023/01/25 08:27:32;;;;;;;24.40;18.47;;;;;;;1.31;100.00;101843.25;5029285;28;20187;-73
2023/01/25 08:29:57;;;;;;;23.63;18.70;;;;;;;1.30;100.00;101850.03;5031249;28;20186;-75
2023/01/25 08:32:23;;;;;;;25.10;19.80;;;;;;;1.29;100.00;101839.72;5020121;28;20377;-73
2023/01/25 08:34:48;;;;;;;25.53;19.80;;;;;;;1.29;100.00;101842.28;5022644;28;20191;-73
2023/01/25 08:37:14;;;;;;;24.37;19.63;;;;;;;1.30;100.00;101836.38;5014530;28;20560;-73
2023/01/25 08:39:39;;;;;;;23.97;20.53;;;;;;;1.30;100.00;101836.38;5018805;28;20210;-73
2023/01/25 08:42:05;;;;;;;23.63;19.13;;;;;;;1.32;100.00;101845.00;5017975;28;20734;-73
2023/01/25 08:44:30;;;;;;;25.20;19.67;;;;;;;1.35;100.00;101827.31;5019151;28;20246;-75
2023/01/25 08:46:55;;;;;;;22.40;17.93;;;;;;;1.37;100.00;101830.84;5016313;28;20237;-75
2023/01/25 08:49:21;;;;;;;24.47;17.40;;;;;;;1.38;100.00;101832.59;5022087;28;20180;-74
2023/01/25 08:51:49;;;;;;;21.67;17.50;;;;;;;1.42;100.00;101829.41;5017633;28;20861;-74
2023/01/25 08:54:14;;;;;;;23.70;19.03;;;;;;;1.40;100.00;101825.00;5016782;28;20192;-73
2023/01/25 08:56:40;;;;;;;22.20;18.37;;;;;;;1.37;100.00;101821.50;5015646;28;20196;-74
2023/01/25 08:59:06;;;;;;;22.03;19.30;;;;;;;1.36;100.00;101818.88;5017820;28;21246;-73
2023/01/25 09:01:32;;;;;;;23.53;18.40;;;;;;;1.43;100.00;101812.41;5019136;28;20215;-74
2023/01/25 09:03:57;;;;;;;22.03;17.57;;;;;;;1.42;100.00;101811.56;5015812;28;20199;-74
2023/01/25 09:06:23;;;;;;;21.00;17.90;;;;;;;1.47;100.00;101817.75;5025239;28;20188;-74
2023/01/25 09:08:48;;;;;;;20.57;17.27;;;;;;;1.47;100.00;101815.22;5018224;28;20187;-73
2023/01/25 09:11:19;;;;;;;24.60;18.07;;;;;;;1.48;100.00;101811.00;5027467;28;20214;-73
2023/01/25 09:13:47;;;;;;;23.07;17.70;;;;;;;1.49;100.00;101811.06;5025611;28;20188;-76
2023/01/25 09:16:15;;;;;;;21.20;17.03;;;;;;;1.52;100.00;101811.25;5041422;28;20588;-73
2023/01/25 09:18:42;;;;;;;21.03;16.63;;;;;;;1.55;100.00;101810.50;5026469;28;21030;-73
2023/01/25 09:21:11;;;;;;;21.20;17.83;;;;;;;1.62;100.00;101807.50;5036349;28;20215;-74
2023/01/25 09:23:37;;;;;;;20.10;16.57;;;;;;;1.66;100.00;101816.19;5022728;28;20253;-73
2023/01/25 09:26:03;;;;;;;22.13;17.30;;;;;;;1.67;100.00;101823.03;5028524;28;20198;-74
2023/01/25 09:28:31;;;;;;;19.00;16.50;;;;;;;1.62;100.00;101812.59;5028391;28;20231;-73
2023/01/25 09:31:03;;;;;;;21.03;16.97;;;;;;;1.64;100.00;101817.78;5028742;28;20195;-74
2023/01/25 09:33:31;;;;;;;22.40;17.30;;;;;;;1.66;100.00;101808.53;5030871;28;20604;-73
2023/01/25 09:35:56;;;;;;;21.53;17.47;;;;;;;1.61;100.00;101807.41;5020514;28;20535;-73
2023/01/25 09:38:23;;;;;;;21.53;16.83;;;;;;;1.62;100.00;101812.59;5022455;28;20717;-73
2023/01/25 09:41:14;;;;;;;21.30;17.27;;;;;;;1.62;100.00;101807.50;5019629;28;20187;-73
2023/01/25 09:43:42;;;;;;;21.20;17.80;;;;;;;1.63;100.00;101811.81;5026729;28;20176;-73
2023/01/25 09:46:30;;;;;;;21.80;17.03;;;;;;;1.70;100.00;101804.44;5024389;28;20199;-74
2023/01/25 09:49:05;;;;;;;22.30;17.80;;;;;;;1.76;100.00;101813.31;5021655;28;20554;-73
2023/01/25 09:51:55;;;;;;;22.47;18.93;;;;;;;1.75;100.00;101810.69;5037259;28;20214;-73
2023/01/25 09:54:22;;;;;;;20.07;16.67;;;;;;;1.79;100.00;101813.47;5026686;28;20207;-73
2023/01/25 09:56:49;;;;;;;20.17;17.17;;;;;;;1.79;100.00;101810.91;5017202;28;20188;-74
2023/01/25 09:59:20;;;;;;;20.83;16.70;;;;;;;1.84;100.00;101811.16;5016182;28;20207;-75
2023/01/25 10:01:49;;;;;;;19.30;17.20;;;;;;;1.82;100.00;101810.19;5020479;28;20695;-75
2023/01/25 10:04:53;;;;;;;21.83;17.23;;;;;;;1.82;100.00;101795.75;5024432;28;20275;-74
2023/01/25 10:07:25;;;;;;;20.40;17.00;;;;;;;1.82;100.00;101800.88;4991226;28;20186;-73
2023/01/25 10:10:05;;;;;;;20.67;16.97;;;;;;;1.84;100.00;101803.47;5042693;28;20214;-73
2023/01/25 10:12:37;;;;;;;19.73;16.60;;;;;;;1.87;100.00;101803.66;5038806;28;20218;-73
2023/01/25 10:15:18;;;;;;;19.20;16.20;;;;;;;1.87;100.00;101796.00;5031919;28;20191;-75
2023/01/25 10:17:44;;;;;;;19.73;16.53;;;;;;;1.89;100.00;101801.19;5026052;28;20176;-73
2023/01/25 10:20:24;;;;;;;17.53;15.27;;;;;;;1.86;100.00;101798.47;5030318;28;20566;-75
2023/01/25 10:23:06;;;;;;;21.23;17.30;;;;;;;1.90;100.00;101796.16;5028667;28;20230;-73
2023/01/25 10:25:54;;;;;;;19.60;16.53;;;;;;;1.93;100.00;101793.75;5025543;28;20915;-74
2023/01/25 10:28:48;;;;;;;20.33;16.50;;;;;;;2.00;100.00;101792.41;5046144;28;20252;-75
2023/01/25 10:31:33;;;;;;;18.03;15.07;;;;;;;2.07;100.00;101783.34;5038790;28;20191;-74
2023/01/25 10:34:02;;;;;;;18.03;16.13;;;;;;;2.08;100.00;101778.31;5026583;28;20184;-73
2023/01/25 10:36:29;;;;;;;20.53;15.67;;;;;;;2.07;100.00;101781.66;5030916;28;20590;-75
2023/01/25 10:38:59;;;;;;;18.80;15.93;;;;;;;2.09;100.00;101774.97;5031070;28;20675;-73
2023/01/25 10:41:52;;;;;;;16.20;14.60;;;;;;;2.10;100.00;101780.97;5031998;28;20961;-73
2023/01/25 10:44:20;;;;;;;17.17;15.03;;;;;;;2.09;100.00;101772.41;5012219;28;20191;-74
2023/01/25 10:46:52;;;;;;;16.07;14.33;;;;;;;2.12;100.00;101777.69;5021501;28;20607;-76
2023/01/25 10:49:28;;;;;;;16.60;14.80;;;;;;;2.11;100.00;101773.38;5032135;28;20242;-74
2023/01/25 10:51:55;;;;;;;16.50;14.80;;;;;;;2.09;100.00;101764.75;5037028;28;20209;-73
2023/01/25 10:54:21;;;;;;;18.67;15.93;;;;;;;2.09;100.00;101759.66;5027485;28;20192;-73
2023/01/25 10:56:47;;;;;;;18.03;15.73;;;;;;;2.13;100.00;101764.09;5016843;28;20183;-73
2023/01/25 10:59:15;;;;;;;15.33;13.47;;;;;;;2.13;100.00;101763.22;5027638;28;20295;-73
2023/01/25 11:01:41;;;;;;;16.13;14.43;;;;;;;2.11;100.00;101760.59;5020046;28;20212;-73
2023/01/25 11:04:28;;;;;;;16.93;15.13;;;;;;;2.13;100.00;101756.44;5034860;28;20211;-72
2023/01/25 11:06:53;;;;;;;17.10;14.90;;;;;;;2.07;100.00;101750.16;5031482;28;20180;-73
2023/01/25 11:09:21;;;;;;;16.77;14.17;;;;;;;2.10;100.00;101757.97;5027989;28;20187;-73
2023/01/25 11:12:01;;;;;;;17.23;14.97;;;;;;;2.12;100.00;101746.13;5036499;28;20678;-73
2023/01/25 11:14:30;;;;;;;14.90;13.40;;;;;;;2.16;100.00;101747.19;5036907;28;20217;-74